createdAt,value
2023-02-02T00:03:43.931Z,1.48
2023-02-02T00:05:07.880Z,2.30
2023-02-02T00:06:32.294Z,1.17
2023-02-02T00:07:54.718Z,2.25
2023-02-02T00:09:19.518Z,2.10
2023-02-02T00:10:42.141Z,2.90
2023-02-02T00:12:07.314Z,1.42
2023-02-02T00:13:29.831Z,2.47
2023-02-02T00:14:53.355Z,2.00
2023-02-02T00:16:41.405Z,2.08
2023-02-02T00:18:05.159Z,1.60
2023-02-02T00:19:31.485Z,2.05
2023-02-02T00:20:54.086Z,2.20
2023-02-02T00:22:17.816Z,1.77
2023-02-02T00:23:40.279Z,2.22
2023-02-02T00:25:03.810Z,1.70
2023-02-02T00:26:26.372Z,2.15
2023-02-02T00:27:51.449Z,2.15
2023-02-02T00:29:16.362Z,1.67
2023-02-02T00:30:39.932Z,2.00
2023-02-02T00:32:03.555Z,1.95
2023-02-02T00:33:27.206Z,2.10
2023-02-02T00:34:50.654Z,2.03
2023-02-02T00:36:13.079Z,1.85
2023-02-02T00:37:37.670Z,2.35
2023-02-02T00:39:00.127Z,2.20
2023-02-02T00:40:24.096Z,2.30
2023-02-02T00:41:46.735Z,1.98
2023-02-02T00:43:12.652Z,2.40
2023-02-02T00:44:53.546Z,2.03
2023-02-02T00:46:19.625Z,1.95
2023-02-02T00:47:43.711Z,1.98
2023-02-02T00:49:07.313Z,1.88
2023-02-02T00:50:30.978Z,2.72
2023-02-02T00:51:53.560Z,2.08
2023-02-02T00:53:19.086Z,1.92
2023-02-02T00:54:42.871Z,1.35
2023-02-02T00:56:07.029Z,1.65
2023-02-02T00:57:30.479Z,1.95
2023-02-02T00:58:54.296Z,1.75
2023-02-02T01:00:20.818Z,2.08
2023-02-02T01:01:44.446Z,1.38
2023-02-02T01:03:07.897Z,2.10
2023-02-02T01:04:30.406Z,1.98
2023-02-02T01:05:54.073Z,2.10
2023-02-02T01:07:16.573Z,2.70
2023-02-02T01:08:40.150Z,1.77
2023-02-02T01:10:03.596Z,1.60
2023-02-02T01:11:27.785Z,1.85
2023-02-02T01:12:51.294Z,2.25
2023-02-02T01:14:15.130Z,1.95
2023-02-02T01:15:38.903Z,1.48
2023-02-02T01:17:01.526Z,1.20
2023-02-02T01:18:25.441Z,1.70
2023-02-02T01:19:48.933Z,1.38
2023-02-02T01:21:12.314Z,1.90
2023-02-02T01:22:36.057Z,2.60
2023-02-02T01:23:58.663Z,2.20
2023-02-02T01:25:22.469Z,2.40
2023-02-02T01:26:45.134Z,2.28
2023-02-02T01:28:08.673Z,2.13
2023-02-02T01:29:32.649Z,2.17
2023-02-02T01:30:56.690Z,1.75
2023-02-02T01:32:20.235Z,1.58
2023-02-02T01:33:43.892Z,1.77
2023-02-02T01:35:07.857Z,2.25
2023-02-02T01:36:31.340Z,2.45
2023-02-02T01:37:54.865Z,1.50
2023-02-02T01:39:19.654Z,1.70
2023-02-02T01:40:46.300Z,2.05
2023-02-02T01:42:15.185Z,2.38
2023-02-02T01:43:57.367Z,2.10
2023-02-02T01:45:27.290Z,2.63
2023-02-02T01:46:50.969Z,2.00
2023-02-02T01:48:13.620Z,1.83
2023-02-02T01:49:38.565Z,1.55
2023-02-02T01:51:04.038Z,1.42
2023-02-02T01:52:30.016Z,1.90
2023-02-02T01:53:54.230Z,1.10
2023-02-02T01:55:20.107Z,2.00
2023-02-02T01:56:47.780Z,1.65
2023-02-02T01:58:11.973Z,1.73
2023-02-02T01:59:35.856Z,2.30
2023-02-02T02:00:59.790Z,1.60
2023-02-02T02:02:23.594Z,1.55
2023-02-02T02:03:46.133Z,2.88
2023-02-02T02:05:10.331Z,1.73
2023-02-02T02:06:33.984Z,1.83
2023-02-02T02:08:04.675Z,1.80
2023-02-02T02:09:28.226Z,1.98
2023-02-02T02:10:50.932Z,1.60
2023-02-02T02:12:15.535Z,2.15
2023-02-02T02:13:57.355Z,1.30
2023-02-02T02:15:39.613Z,2.05
2023-02-02T02:17:16.105Z,2.35
2023-02-02T02:18:46.055Z,1.60
2023-02-02T02:21:03.601Z,1.98
2023-02-02T02:23:05.943Z,1.67
2023-02-02T02:25:13.328Z,1.80
2023-02-02T02:27:06.085Z,1.73
2023-02-02T02:28:52.881Z,2.08
2023-02-02T02:30:37.943Z,1.40
2023-02-02T02:32:07.364Z,2.10
2023-02-02T02:33:37.121Z,2.13
2023-02-02T02:35:06.208Z,1.80
2023-02-02T02:36:36.062Z,1.90
2023-02-02T02:38:06.664Z,1.67
2023-02-02T02:39:33.999Z,2.00
2023-02-02T02:41:00.181Z,1.75
2023-02-02T02:42:26.621Z,1.95
2023-02-02T02:43:54.621Z,1.80
2023-02-02T02:45:19.125Z,1.95
2023-02-02T02:46:42.012Z,1.73
2023-02-02T02:48:07.158Z,1.98
2023-02-02T02:49:30.749Z,2.55
2023-02-02T02:50:53.193Z,1.55
2023-02-02T02:52:16.775Z,1.70
2023-02-02T02:53:39.323Z,1.85
2023-02-02T02:55:05.436Z,2.05
2023-02-02T02:56:35.952Z,1.85
2023-02-02T02:58:08.355Z,1.80
2023-02-02T02:59:37.925Z,1.73
2023-02-02T03:01:07.692Z,1.60
2023-02-02T03:03:01.874Z,1.52
2023-02-02T03:04:33.574Z,1.10
2023-02-02T03:06:06.066Z,1.15
2023-02-02T03:07:32.332Z,1.10
2023-02-02T03:08:59.730Z,2.00
2023-02-02T03:10:28.461Z,1.55
2023-02-02T03:11:51.062Z,2.30
2023-02-02T03:13:16.799Z,1.75
2023-02-02T03:14:40.690Z,1.40
2023-02-02T03:16:04.578Z,1.73
2023-02-02T03:17:28.279Z,1.83
2023-02-02T03:18:51.914Z,1.70
2023-02-02T03:20:16.715Z,1.20
2023-02-02T03:21:40.432Z,1.50
2023-02-02T03:23:04.007Z,1.55
2023-02-02T03:24:27.528Z,1.80
2023-02-02T03:25:50.072Z,1.63
2023-02-02T03:27:13.521Z,0.77
2023-02-02T03:28:37.400Z,1.15
2023-02-02T03:30:02.316Z,1.00
2023-02-02T03:31:26.939Z,1.30
2023-02-02T03:32:50.685Z,1.02
2023-02-02T03:34:14.128Z,1.15
2023-02-02T03:35:38.886Z,1.05
2023-02-02T03:37:02.421Z,1.42
2023-02-02T03:38:27.148Z,1.75
2023-02-02T03:39:49.595Z,1.42
2023-02-02T03:41:15.577Z,0.75
2023-02-02T03:42:38.078Z,1.90
2023-02-02T03:44:01.583Z,1.60
2023-02-02T03:45:26.643Z,1.23
2023-02-02T03:46:51.264Z,1.15
2023-02-02T03:48:14.723Z,1.23
2023-02-02T03:49:38.182Z,1.98
2023-02-02T03:51:06.572Z,1.58
2023-02-02T03:52:30.095Z,1.40
2023-02-02T03:53:53.641Z,1.42
2023-02-02T03:55:16.252Z,1.25
2023-02-02T03:56:39.719Z,1.52
2023-02-02T03:58:02.218Z,1.65
2023-02-02T03:59:25.754Z,0.75
2023-02-02T04:00:49.450Z,1.33
2023-02-02T04:02:12.035Z,0.80
2023-02-02T04:03:35.902Z,1.10
2023-02-02T04:04:59.451Z,0.82
2023-02-02T04:06:24.741Z,0.82
2023-02-02T04:07:49.107Z,0.85
2023-02-02T04:09:12.574Z,1.00
2023-02-02T04:10:35.036Z,1.02
2023-02-02T04:11:58.824Z,0.82
2023-02-02T04:13:22.386Z,0.80
2023-02-02T04:14:46.721Z,1.45
2023-02-02T04:16:10.351Z,0.95
2023-02-02T04:17:33.867Z,1.33
2023-02-02T04:18:57.694Z,1.65
2023-02-02T04:20:21.190Z,1.00
2023-02-02T04:21:45.171Z,1.38
2023-02-02T04:23:08.685Z,1.20
2023-02-02T04:24:31.132Z,1.15
2023-02-02T04:25:54.887Z,1.20
2023-02-02T04:27:18.569Z,1.15
2023-02-02T04:28:42.023Z,1.60
2023-02-02T04:30:05.881Z,1.35
2023-02-02T04:31:30.031Z,1.08
2023-02-02T04:32:53.732Z,1.60
2023-02-02T04:34:16.337Z,1.23
2023-02-02T04:35:39.817Z,1.50
2023-02-02T04:37:07.090Z,1.15
2023-02-02T04:38:29.561Z,1.23
2023-02-02T04:39:55.357Z,1.75
2023-02-02T04:41:19.864Z,1.20
2023-02-02T04:42:43.872Z,1.17
2023-02-02T04:44:10.568Z,1.20
2023-02-02T04:45:33.298Z,0.80
2023-02-02T04:46:56.905Z,1.40
2023-02-02T04:48:20.209Z,1.02
2023-02-02T04:49:45.689Z,1.05
2023-02-02T04:51:11.604Z,1.30
2023-02-02T04:52:37.228Z,1.50
2023-02-02T04:54:00.728Z,1.00
2023-02-02T04:55:24.617Z,1.05
2023-02-02T04:56:48.338Z,1.10
2023-02-02T04:58:11.801Z,0.85
2023-02-02T04:59:34.697Z,1.10
2023-02-02T05:00:58.274Z,1.13
2023-02-02T05:02:20.799Z,1.48
2023-02-02T05:03:44.470Z,0.90
2023-02-02T05:05:09.625Z,0.77
2023-02-02T05:06:33.238Z,1.13
2023-02-02T05:07:58.247Z,1.50
2023-02-02T05:09:21.778Z,1.50
2023-02-02T05:10:45.366Z,1.13
2023-02-02T05:12:09.056Z,1.20
2023-02-02T05:13:32.242Z,1.30
2023-02-02T05:14:55.696Z,0.98
2023-02-02T05:16:19.446Z,1.38
2023-02-02T05:17:41.937Z,1.13
2023-02-02T05:19:05.396Z,1.83
2023-02-02T05:20:28.016Z,1.58
2023-02-02T05:21:51.665Z,1.92
2023-02-02T05:23:15.460Z,1.85
2023-02-02T05:24:38.918Z,1.17
2023-02-02T05:26:02.967Z,2.78
2023-02-02T05:27:26.511Z,1.00
2023-02-02T05:28:49.181Z,1.38
2023-02-02T05:30:14.468Z,1.30
2023-02-02T05:31:36.981Z,1.48
2023-02-02T05:33:00.446Z,1.67
2023-02-02T05:34:24.454Z,1.15
2023-02-02T05:35:48.086Z,1.38
2023-02-02T05:37:11.767Z,1.40
2023-02-02T05:38:36.763Z,1.35
2023-02-02T05:39:59.235Z,1.27
2023-02-02T05:41:22.731Z,0.75
2023-02-02T05:42:48.676Z,1.23
2023-02-02T05:44:14.571Z,0.98
2023-02-02T05:45:38.133Z,1.17
2023-02-02T05:47:01.805Z,1.70
2023-02-02T05:48:25.518Z,1.70
2023-02-02T05:49:49.129Z,1.55
2023-02-02T05:51:16.284Z,1.20
2023-02-02T05:52:41.368Z,1.33
2023-02-02T05:54:05.391Z,1.27
2023-02-02T05:55:28.910Z,1.48
2023-02-02T05:56:54.626Z,0.98
2023-02-02T05:58:18.229Z,1.08
2023-02-02T05:59:41.879Z,1.40
2023-02-02T06:01:06.287Z,1.83
2023-02-02T06:02:29.896Z,0.82
2023-02-02T06:03:53.637Z,1.58
2023-02-02T06:05:17.520Z,0.93
2023-02-02T06:06:41.633Z,0.88
2023-02-02T06:08:05.128Z,0.93
2023-02-02T06:09:30.055Z,1.40
2023-02-02T06:10:53.730Z,1.27
2023-02-02T06:12:18.804Z,1.73
2023-02-02T06:13:44.297Z,1.30
2023-02-02T06:15:10.224Z,1.33
2023-02-02T06:16:33.726Z,1.08
2023-02-02T06:17:58.466Z,1.38
2023-02-02T06:19:22.159Z,1.20
2023-02-02T06:20:46.914Z,1.27
2023-02-02T06:22:10.382Z,1.42
2023-02-02T06:23:34.433Z,1.48
2023-02-02T06:24:58.807Z,1.50
2023-02-02T06:26:22.521Z,0.70
2023-02-02T06:27:46.305Z,0.98
2023-02-02T06:29:14.178Z,1.20
2023-02-02T06:30:37.600Z,1.15
2023-02-02T06:32:00.228Z,1.55
2023-02-02T06:33:23.725Z,1.60
2023-02-02T06:34:47.266Z,1.40
2023-02-02T06:36:10.799Z,1.30
2023-02-02T06:37:35.145Z,1.55
2023-02-02T06:38:59.253Z,1.00
2023-02-02T06:40:24.103Z,1.30
2023-02-02T06:41:48.273Z,1.00
2023-02-02T06:43:15.073Z,1.10
2023-02-02T06:44:40.957Z,1.30
2023-02-02T06:46:04.562Z,1.60
2023-02-02T06:47:28.135Z,1.55
2023-02-02T06:48:51.581Z,1.75
2023-02-02T06:50:15.262Z,0.85
2023-02-02T06:51:37.738Z,1.30
2023-02-02T06:53:01.283Z,0.93
2023-02-02T06:54:23.774Z,1.40
2023-02-02T06:55:54.783Z,1.33
2023-02-02T06:57:18.276Z,1.20
2023-02-02T06:58:41.817Z,1.27
2023-02-02T07:00:06.145Z,1.42
2023-02-02T07:01:29.558Z,1.33
2023-02-02T07:02:53.114Z,1.10
2023-02-02T07:04:17.643Z,1.02
2023-02-02T07:05:41.094Z,1.27
2023-02-02T07:07:04.618Z,1.60
2023-02-02T07:08:28.134Z,0.82
2023-02-02T07:09:58.415Z,1.02
2023-02-02T07:11:23.740Z,1.73
2023-02-02T07:12:47.580Z,1.63
2023-02-02T07:14:11.255Z,1.20
2023-02-02T07:15:35.698Z,1.08
2023-02-02T07:16:59.368Z,1.40
2023-02-02T07:18:22.916Z,1.50
2023-02-02T07:19:46.672Z,1.40
2023-02-02T07:21:10.278Z,1.30
2023-02-02T07:22:32.955Z,0.77
2023-02-02T07:23:56.414Z,1.17
2023-02-02T07:25:18.926Z,1.30
2023-02-02T07:26:43.770Z,1.30
2023-02-02T07:28:07.393Z,1.25
2023-02-02T07:29:31.044Z,1.50
2023-02-02T07:30:54.695Z,1.58
2023-02-02T07:32:18.231Z,1.58
2023-02-02T07:33:42.071Z,1.58
2023-02-02T07:35:06.241Z,1.67
2023-02-02T07:36:28.661Z,1.48
2023-02-02T07:37:53.928Z,1.10
2023-02-02T07:39:17.446Z,1.30
2023-02-02T07:40:39.867Z,1.20
2023-02-02T07:42:05.456Z,1.85
2023-02-02T07:43:29.015Z,1.52
2023-02-02T07:44:52.499Z,1.67
2023-02-02T07:46:16.056Z,1.98
2023-02-02T07:47:40.687Z,1.58
2023-02-02T07:49:04.127Z,1.75
2023-02-02T07:50:28.325Z,0.95
2023-02-02T07:51:51.837Z,1.42
2023-02-02T07:53:15.559Z,1.33
2023-02-02T07:54:39.105Z,1.38
2023-02-02T07:56:10.039Z,1.02
2023-02-02T07:57:34.807Z,1.58
2023-02-02T07:58:58.506Z,2.05
2023-02-02T08:00:23.108Z,1.70
2023-02-02T08:01:46.606Z,1.67
2023-02-02T08:03:12.581Z,2.25
2023-02-02T08:04:36.154Z,1.92
2023-02-02T08:06:00.303Z,1.80
2023-02-02T08:07:24.715Z,1.55
2023-02-02T08:08:48.803Z,1.45
2023-02-02T08:10:12.795Z,1.65
2023-02-02T08:11:36.826Z,1.75
2023-02-02T08:13:01.578Z,1.77
2023-02-02T08:14:25.015Z,1.77
2023-02-02T08:15:48.708Z,2.25
2023-02-02T08:17:12.213Z,1.88
2023-02-02T08:18:35.947Z,2.08
2023-02-02T08:19:59.742Z,1.50
2023-02-02T08:21:23.784Z,1.48
2023-02-02T08:22:47.456Z,1.63
2023-02-02T08:24:10.874Z,1.50
2023-02-02T08:25:34.275Z,1.63
2023-02-02T08:26:57.861Z,2.38
2023-02-02T08:28:22.815Z,1.25
2023-02-02T08:29:46.401Z,1.70
2023-02-02T08:31:12.367Z,1.73
2023-02-02T08:32:35.849Z,1.50
2023-02-02T08:33:59.392Z,2.08
2023-02-02T08:35:23.049Z,1.80
2023-02-02T08:36:46.673Z,1.65
2023-02-02T08:38:10.253Z,1.95
2023-02-02T08:39:33.698Z,3.00
2023-02-02T08:40:57.626Z,1.95
2023-02-02T08:42:21.088Z,2.35
2023-02-02T08:43:46.205Z,2.33
2023-02-02T08:46:13.026Z,1.63
2023-02-02T08:46:53.750Z,2.75
2023-02-02T08:48:19.523Z,1.70
2023-02-02T08:49:45.431Z,2.00
2023-02-02T08:51:11.173Z,2.13
2023-02-02T08:52:34.559Z,1.70
2023-02-02T08:53:57.953Z,1.58
2023-02-02T08:55:23.126Z,1.67
2023-02-02T08:56:46.869Z,1.38
2023-02-02T08:58:10.635Z,1.33
2023-02-02T08:59:35.508Z,1.17
2023-02-02T09:01:07.298Z,1.30
2023-02-02T09:02:30.776Z,1.45
2023-02-02T09:03:55.568Z,1.77
2023-02-02T09:05:19.138Z,1.63
2023-02-02T09:06:43.393Z,1.45
2023-02-02T09:08:07.154Z,1.90
2023-02-02T09:09:30.551Z,1.92
2023-02-02T09:10:54.042Z,1.92
2023-02-02T09:12:17.465Z,1.90
2023-02-02T09:13:41.970Z,1.33
2023-02-02T09:15:07.741Z,1.73
2023-02-02T09:16:31.399Z,1.42
2023-02-02T09:17:54.915Z,1.67
2023-02-02T09:19:18.403Z,1.02
2023-02-02T09:20:43.456Z,1.75
2023-02-02T09:22:06.889Z,1.55
2023-02-02T09:23:31.626Z,1.50
2023-02-02T09:24:55.095Z,1.35
2023-02-02T09:26:20.185Z,1.45
2023-02-02T09:27:43.675Z,1.85
2023-02-02T09:29:09.039Z,1.33
2023-02-02T09:30:33.922Z,1.58
2023-02-02T09:31:57.435Z,1.55
2023-02-02T09:33:20.905Z,1.45
2023-02-02T09:34:44.362Z,1.90
2023-02-02T09:36:08.678Z,1.77
2023-02-02T09:37:32.168Z,1.52
2023-02-02T09:38:55.640Z,1.55
2023-02-02T09:40:20.974Z,1.23
2023-02-02T09:42:21.600Z,1.35
2023-02-02T09:43:52.450Z,1.42
2023-02-02T09:45:20.726Z,1.88
2023-02-02T09:46:53.072Z,1.40
2023-02-02T09:48:25.849Z,1.70
2023-02-02T09:49:57.206Z,1.45
2023-02-02T09:51:23.165Z,1.65
2023-02-02T09:52:49.175Z,1.42
2023-02-02T09:54:18.847Z,1.92
2023-02-02T09:55:45.349Z,1.60
2023-02-02T09:57:15.515Z,2.17
2023-02-02T09:58:44.540Z,1.52
2023-02-02T10:00:12.231Z,1.25
2023-02-02T10:01:37.287Z,1.85
2023-02-02T10:03:06.893Z,1.83
2023-02-02T10:04:36.323Z,2.03
2023-02-02T10:06:05.864Z,1.10
2023-02-02T10:07:35.019Z,1.80
2023-02-02T10:09:04.717Z,1.80
2023-02-02T10:10:30.039Z,1.20
2023-02-02T10:11:56.210Z,2.25
2023-02-02T10:13:22.915Z,1.73
2023-02-02T10:14:51.879Z,1.08
2023-02-02T10:16:18.137Z,1.55
2023-02-02T10:17:45.687Z,1.50
2023-02-02T10:19:13.728Z,1.42
2023-02-02T10:20:43.804Z,1.63
2023-02-02T10:22:11.075Z,1.30
2023-02-02T10:23:36.910Z,1.63
2023-02-02T10:25:00.427Z,1.55
2023-02-02T10:26:26.911Z,1.65
2023-02-02T10:27:55.643Z,1.08
2023-02-02T10:29:26.175Z,1.20
2023-02-02T10:30:56.696Z,2.30
2023-02-02T10:32:25.855Z,1.25
2023-02-02T10:33:56.004Z,1.60
2023-02-02T10:35:31.285Z,1.38
2023-02-02T10:37:04.376Z,1.50
2023-02-02T10:38:36.685Z,1.27
2023-02-02T10:40:11.721Z,2.70
2023-02-02T10:41:41.344Z,1.23
2023-02-02T10:43:47.895Z,1.40
2023-02-02T10:45:15.700Z,1.98
2023-02-02T10:46:42.272Z,2.25
2023-02-02T10:48:12.377Z,1.25
2023-02-02T10:49:36.911Z,1.73
2023-02-02T10:51:03.541Z,1.13
2023-02-02T10:52:32.629Z,1.30
2023-02-02T10:53:58.332Z,1.17
2023-02-02T10:55:28.358Z,1.70
2023-02-02T10:56:53.981Z,1.67
2023-02-02T10:58:24.626Z,0.90
2023-02-02T10:59:52.213Z,1.25
2023-02-02T11:01:18.174Z,1.45
2023-02-02T11:02:41.754Z,1.58
2023-02-02T11:04:19.223Z,1.80
2023-02-02T11:06:00.430Z,1.20
2023-02-02T11:07:25.320Z,0.82
2023-02-02T11:08:56.436Z,1.42
2023-02-02T11:10:19.838Z,1.40
2023-02-02T11:11:45.246Z,1.17
2023-02-02T11:13:09.770Z,0.98
2023-02-02T11:14:45.724Z,1.38
2023-02-02T11:16:38.826Z,0.85
2023-02-02T11:18:16.395Z,1.13
2023-02-02T11:19:39.847Z,1.35
2023-02-02T11:21:03.296Z,1.58
2023-02-02T11:22:32.383Z,0.82
2023-02-02T11:23:57.833Z,0.75
2023-02-02T11:25:29.232Z,1.60
2023-02-02T11:26:55.816Z,1.20
2023-02-02T11:28:24.088Z,0.88
2023-02-02T11:29:49.171Z,1.00
2023-02-02T11:31:13.174Z,1.40
2023-02-02T11:32:37.804Z,1.70
2023-02-02T11:34:20.912Z,1.30
2023-02-02T11:35:55.682Z,0.88
2023-02-02T11:37:23.543Z,1.13
2023-02-02T11:38:48.409Z,1.30
2023-02-02T11:40:26.333Z,1.40
2023-02-02T11:41:49.985Z,1.20
2023-02-02T11:43:19.340Z,0.82
2023-02-02T11:44:45.805Z,1.17
2023-02-02T11:46:18.674Z,1.25
2023-02-02T11:47:42.444Z,1.40
2023-02-02T11:49:08.540Z,1.40
2023-02-02T11:50:32.087Z,1.83
2023-02-02T11:52:00.852Z,1.10
2023-02-02T11:53:26.785Z,1.02
2023-02-02T11:54:53.388Z,1.98
2023-02-02T11:56:21.475Z,1.10
2023-02-02T11:58:27.652Z,1.17
2023-02-02T11:59:52.207Z,1.10
2023-02-02T12:01:26.575Z,1.33
2023-02-02T12:02:50.894Z,1.30
2023-02-02T12:04:25.848Z,1.10
2023-02-02T12:05:50.360Z,0.95
2023-02-02T12:07:23.285Z,1.40
2023-02-02T12:08:46.937Z,1.50
2023-02-02T12:10:18.464Z,2.13
2023-02-02T12:11:49.783Z,1.15
2023-02-02T12:13:21.063Z,2.10
2023-02-02T12:14:49.057Z,1.55
2023-02-02T12:16:28.252Z,1.58
2023-02-02T12:17:56.577Z,0.60
2023-02-02T12:19:36.602Z,1.30
2023-02-02T12:21:06.020Z,0.60
2023-02-02T12:22:52.755Z,1.35
2023-02-02T12:24:27.339Z,1.10
2023-02-02T12:26:02.393Z,0.80
2023-02-02T12:27:35.311Z,1.20
2023-02-02T12:29:14.643Z,1.23
2023-02-02T12:30:44.654Z,1.00
2023-02-02T12:32:18.647Z,1.00
2023-02-02T12:33:48.560Z,1.30
2023-02-02T12:37:25.434Z,1.13
2023-02-02T12:39:01.739Z,0.77
2023-02-02T12:40:49.874Z,0.65
2023-02-02T12:42:35.910Z,1.05
2023-02-02T12:44:04.176Z,1.15
2023-02-02T12:46:16.541Z,1.00
2023-02-02T12:47:47.675Z,1.02
2023-02-02T12:49:26.096Z,1.50
2023-02-02T12:51:00.223Z,1.27
2023-02-02T12:52:48.695Z,1.75
2023-02-02T12:54:33.234Z,1.13
2023-02-02T12:56:06.421Z,1.10
2023-02-02T12:57:43.716Z,2.00
2023-02-02T12:59:21.707Z,1.35
2023-02-02T13:01:03.915Z,0.88
2023-02-02T13:02:33.121Z,1.33
2023-02-02T13:04:07.123Z,1.35
2023-02-02T13:05:46.578Z,1.10
2023-02-02T13:07:33.464Z,1.38
2023-02-02T13:09:00.826Z,1.17
2023-02-02T13:10:28.669Z,0.77
2023-02-02T13:12:02.723Z,1.20
2023-02-02T13:13:31.353Z,0.82
2023-02-02T13:14:57.632Z,1.30
2023-02-02T13:16:21.142Z,1.65
2023-02-02T13:17:47.880Z,2.13
2023-02-02T13:19:15.129Z,1.15
2023-02-02T13:20:41.018Z,1.05
2023-02-02T13:22:08.420Z,1.35
2023-02-02T13:23:35.764Z,1.60
2023-02-02T13:25:02.585Z,0.82
2023-02-02T13:26:29.379Z,0.43
2023-02-02T13:27:53.360Z,1.58
2023-02-02T13:29:24.170Z,1.45
2023-02-02T13:30:49.307Z,1.98
2023-02-02T13:32:18.866Z,1.00
2023-02-02T13:33:43.682Z,1.42
2023-02-02T13:35:15.721Z,1.40
2023-02-02T13:36:41.807Z,1.50
2023-02-02T13:38:14.151Z,1.10
2023-02-02T13:39:39.859Z,0.95
2023-02-02T13:41:07.036Z,1.30
2023-02-02T13:42:38.194Z,0.63
2023-02-02T13:44:33.389Z,0.70
2023-02-02T13:46:05.041Z,1.40
2023-02-02T13:47:31.830Z,0.85
2023-02-02T13:49:01.311Z,0.77
2023-02-02T13:50:30.096Z,0.98
2023-02-02T13:52:12.814Z,0.47
2023-02-02T13:53:53.827Z,0.45
2023-02-02T13:55:48.606Z,0.75
2023-02-02T13:57:29.200Z,1.30
2023-02-02T13:59:00.066Z,1.10
2023-02-02T14:00:26.838Z,1.70
2023-02-02T14:01:51.322Z,0.98
2023-02-02T14:03:33.781Z,1.00
2023-02-02T14:05:07.811Z,1.40
2023-02-02T14:06:56.230Z,0.95
2023-02-02T14:08:21.468Z,0.85
2023-02-02T14:09:46.132Z,0.73
2023-02-02T14:11:10.939Z,0.77
2023-02-02T14:12:35.629Z,1.02
2023-02-02T14:14:18.571Z,1.10
2023-02-02T14:15:45.374Z,1.00
2023-02-02T14:17:38.938Z,0.90
2023-02-02T14:19:02.855Z,0.88
2023-02-02T14:20:50.109Z,1.17
2023-02-02T14:22:46.510Z,1.08
2023-02-02T14:24:41.674Z,1.70
2023-02-02T14:26:09.893Z,2.00
2023-02-02T14:28:29.026Z,3.53
2023-02-02T14:30:20.115Z,1.20
2023-02-02T14:31:54.422Z,2.58
2023-02-02T14:36:15.733Z,1.65
2023-02-02T14:37:50.627Z,3.13
2023-02-02T14:39:22.771Z,1.35
2023-02-02T14:40:53.280Z,1.98
2023-02-02T14:42:47.769Z,1.33
2023-02-02T14:44:10.437Z,1.55
2023-02-02T14:45:36.125Z,0.93
2023-02-02T14:47:01.260Z,1.30
2023-02-02T14:48:26.808Z,1.10
2023-02-02T14:49:58.547Z,1.00
2023-02-02T14:51:26.766Z,1.63
2023-02-02T14:53:01.696Z,1.00
2023-02-02T14:54:28.460Z,1.50
2023-02-02T14:56:00.104Z,1.33
2023-02-02T14:57:28.527Z,1.75
2023-02-02T14:59:00.121Z,0.73
2023-02-02T15:00:27.708Z,1.13
2023-02-02T15:01:58.215Z,1.00
2023-02-02T15:03:37.704Z,1.65
2023-02-02T15:05:40.327Z,0.90
2023-02-02T15:07:36.863Z,1.30
2023-02-02T15:09:38.535Z,1.52
2023-02-02T15:11:25.325Z,0.47
2023-02-02T15:12:50.283Z,0.75
2023-02-02T15:14:16.974Z,1.02
2023-02-02T15:15:44.046Z,1.02
2023-02-02T15:17:13.549Z,0.63
2023-02-02T15:18:47.625Z,1.50
2023-02-02T15:20:20.752Z,0.90
2023-02-02T15:21:45.440Z,0.82
2023-02-02T15:23:19.283Z,0.80
2023-02-02T15:24:46.528Z,0.70
2023-02-02T15:26:13.670Z,0.60
2023-02-02T15:27:48.021Z,0.90
2023-02-02T15:29:23.291Z,0.85
2023-02-02T15:30:49.770Z,0.55
2023-02-02T15:32:17.864Z,1.15
2023-02-02T15:33:48.712Z,1.00
2023-02-02T15:35:17.676Z,0.95
2023-02-02T15:36:43.695Z,1.17
2023-02-02T15:38:09.189Z,0.65
2023-02-02T15:39:37.296Z,1.35
2023-02-02T15:41:05.384Z,1.10
2023-02-02T15:42:53.110Z,0.82
2023-02-02T15:44:25.006Z,0.80
2023-02-02T15:45:51.914Z,1.25
2023-02-02T15:47:18.480Z,1.42
2023-02-02T15:48:43.969Z,0.90
2023-02-02T15:50:20.499Z,0.73
2023-02-02T15:51:45.720Z,0.80
2023-02-02T15:53:18.189Z,1.88
2023-02-02T15:54:52.720Z,0.93
2023-02-02T15:56:21.010Z,0.77
2023-02-02T15:57:46.685Z,0.80
2023-02-02T15:59:20.798Z,0.73
2023-02-02T16:00:44.326Z,0.70
2023-02-02T16:02:21.115Z,1.25
2023-02-02T16:03:50.186Z,1.20
2023-02-02T16:05:27.993Z,0.65
2023-02-02T16:06:51.917Z,0.90
2023-02-02T16:08:19.422Z,0.88
2023-02-02T16:09:43.111Z,0.77
2023-02-02T16:11:10.182Z,0.80
2023-02-02T16:12:34.401Z,0.73
2023-02-02T16:14:01.329Z,0.95
2023-02-02T16:15:27.964Z,0.80
2023-02-02T16:16:51.661Z,0.80
2023-02-02T16:18:16.495Z,1.30
2023-02-02T16:19:44.619Z,1.15
2023-02-02T16:21:15.925Z,0.80
2023-02-02T16:22:40.022Z,1.23
2023-02-02T16:24:06.736Z,0.85
2023-02-02T16:25:34.849Z,1.13
2023-02-02T16:27:01.664Z,1.27
2023-02-02T16:28:25.639Z,0.95
2023-02-02T16:29:49.528Z,1.20
2023-02-02T16:31:14.290Z,1.30
2023-02-02T16:32:40.019Z,0.80
2023-02-02T16:34:04.650Z,1.25
2023-02-02T16:35:37.577Z,1.25
2023-02-02T16:37:08.313Z,1.08
2023-02-02T16:38:39.049Z,1.00
2023-02-02T16:40:18.866Z,1.58
2023-02-02T16:41:42.498Z,5.45
2023-02-02T16:43:07.202Z,6.38
2023-02-02T16:44:32.385Z,2.97
2023-02-02T16:45:57.006Z,3.42
2023-02-02T16:47:35.038Z,1.40
2023-02-02T16:49:01.435Z,1.60
2023-02-02T16:50:30.795Z,1.50
2023-02-02T16:52:11.396Z,1.73
2023-02-02T16:53:35.190Z,1.42
2023-02-02T16:54:59.037Z,1.15
2023-02-02T16:56:27.688Z,1.27
2023-02-02T16:57:52.118Z,2.20
2023-02-02T16:59:20.396Z,1.52
2023-02-02T17:01:13.969Z,1.40
2023-02-02T17:02:39.939Z,2.72
2023-02-02T17:04:04.038Z,1.50
2023-02-02T17:05:29.171Z,1.52
2023-02-02T17:06:53.633Z,1.63
2023-02-02T17:08:27.081Z,1.90
2023-02-02T17:09:50.783Z,1.50
2023-02-02T17:11:23.679Z,1.38
2023-02-02T17:12:47.657Z,1.95
2023-02-02T17:14:21.315Z,2.00
2023-02-02T17:15:46.744Z,1.67
2023-02-02T17:17:11.408Z,2.45
2023-02-02T17:18:35.085Z,2.20
2023-02-02T17:19:59.019Z,2.58
2023-02-02T17:21:24.282Z,2.72
2023-02-02T17:22:51.409Z,2.55
2023-02-02T17:24:16.500Z,2.58
2023-02-02T17:25:42.886Z,2.00
2023-02-02T17:27:06.433Z,1.70
2023-02-02T17:28:30.434Z,3.28
2023-02-02T17:29:54.436Z,2.30
2023-02-02T17:31:18.454Z,2.63
2023-02-02T17:32:42.032Z,2.15
2023-02-02T17:34:12.699Z,7.97
2023-02-02T17:35:52.581Z,2.88
2023-02-02T17:37:19.126Z,3.17
2023-02-02T17:38:42.764Z,3.35
2023-02-02T17:40:08.899Z,3.50
2023-02-02T17:41:32.499Z,3.45
2023-02-02T17:42:56.085Z,4.70
2023-02-02T17:44:19.580Z,3.55
2023-02-02T17:45:43.575Z,3.40
2023-02-02T17:47:10.816Z,3.22
2023-02-02T17:48:36.878Z,4.38
2023-02-02T17:50:01.021Z,3.92
2023-02-02T17:51:24.578Z,4.15
2023-02-02T17:52:48.621Z,5.40
2023-02-02T17:54:14.505Z,5.72
2023-02-02T17:55:41.880Z,4.35
2023-02-02T17:57:05.474Z,3.97
2023-02-02T17:58:28.925Z,4.20
2023-02-02T17:59:52.528Z,4.13
2023-02-02T18:01:17.821Z,4.25
2023-02-02T18:02:41.353Z,3.88
2023-02-02T18:04:05.624Z,3.90
2023-02-02T18:05:29.252Z,3.75
2023-02-02T18:06:52.705Z,3.20
2023-02-02T18:08:16.449Z,3.38
2023-02-02T18:09:39.918Z,3.92
2023-02-02T18:11:04.796Z,3.53
2023-02-02T18:12:28.348Z,3.15
2023-02-02T18:13:51.820Z,3.63
2023-02-02T18:15:15.677Z,4.00
2023-02-02T18:16:39.428Z,3.55
2023-02-02T18:18:02.943Z,3.63
2023-02-02T18:19:26.363Z,3.20
2023-02-02T18:20:51.181Z,3.40
2023-02-02T18:22:15.080Z,3.38
2023-02-02T18:23:38.925Z,4.15
2023-02-02T18:25:01.463Z,2.75
2023-02-02T18:26:27.074Z,4.25
2023-02-02T18:27:52.280Z,3.67
2023-02-02T18:29:15.726Z,4.13
2023-02-02T18:30:39.955Z,3.65
2023-02-02T18:32:03.773Z,3.03
2023-02-02T18:33:27.238Z,3.95
2023-02-02T18:34:55.185Z,3.75
2023-02-02T18:36:20.450Z,3.88
2023-02-02T18:37:43.878Z,3.83
2023-02-02T18:39:08.468Z,4.00
2023-02-02T18:40:31.850Z,4.47
2023-02-02T18:41:56.643Z,4.30
2023-02-02T18:43:20.077Z,4.38
2023-02-02T18:44:45.788Z,4.50
2023-02-02T18:46:13.438Z,4.63
2023-02-02T18:47:36.874Z,4.18
2023-02-02T18:48:59.465Z,4.25
2023-02-02T18:50:24.808Z,4.00
2023-02-02T18:51:48.914Z,4.90
2023-02-02T18:53:12.538Z,4.43
2023-02-02T18:54:36.018Z,4.32
2023-02-02T18:56:03.062Z,3.45
2023-02-02T18:57:27.954Z,4.47
2023-02-02T18:58:51.668Z,4.82
2023-02-02T19:00:15.793Z,3.58
2023-02-02T19:01:39.349Z,2.90
2023-02-02T19:03:02.904Z,3.35
2023-02-02T19:04:26.475Z,2.28
2023-02-02T19:06:07.360Z,2.90
2023-02-02T19:07:48.272Z,2.88
2023-02-02T19:09:17.111Z,2.85
2023-02-02T19:10:40.964Z,2.88
2023-02-02T19:12:10.491Z,2.83
2023-02-02T19:13:34.761Z,2.70
2023-02-02T19:14:58.266Z,2.80
2023-02-02T19:16:25.697Z,2.78
2023-02-02T19:17:50.364Z,2.80
2023-02-02T19:19:23.369Z,3.38
2023-02-02T19:20:47.713Z,3.30
2023-02-02T19:22:19.969Z,3.15
2023-02-02T19:23:45.962Z,3.08
2023-02-02T19:25:11.543Z,3.13
2023-02-02T19:26:37.071Z,3.30
2023-02-02T19:28:01.397Z,3.50
2023-02-02T19:29:36.584Z,2.80
2023-02-02T19:31:02.750Z,2.88
2023-02-02T19:32:27.334Z,2.78
2023-02-02T19:33:52.244Z,3.30